sensor_id;sensor_type;location;lat;lon;timestamp;P1;durP1;ratioP1;P2;durP2;ratioP2
73670;SDS011;61968;48.178;11.566;2024-03-22T00:01:43;10.98;;;6.68;;
73670;SDS011;61968;48.178;11.566;2024-03-22T00:04:09;12.02;;;6.00;;
73670;SDS011;61968;48.178;11.566;2024-03-22T00:06:35;10.85;;;7.30;;
73670;SDS011;61968;48.178;11.566;2024-03-22T00:09:01;9.35;;;6.38;;
73670;SDS011;61968;48.178;11.566;2024-03-22T00:11:27;11.63;;;7.55;;
73670;SDS011;61968;48.178;11.566;2024-03-22T00:13:53;13.32;;;6.38;;
73670;SDS011;61968;48.178;11.566;2024-03-22T00:16:22;9.32;;;6.18;;
73670;SDS011;61968;48.178;11.566;2024-03-22T00:18:49;11.48;;;7.20;;
73670;SDS011;61968;48.178;11.566;2024-03-22T00:21:16;9.02;;;5.90;;
73670;SDS011;61968;48.178;11.566;2024-03-22T00:23:42;12.68;;;6.00;;
73670;SDS011;61968;48.178;11.566;2024-03-22T00:26:09;12.30;;;6.88;;
73670;SDS011;61968;48.178;11.566;2024-03-22T00:28:34;10.27;;;6.15;;
73670;SDS011;61968;48.178;11.566;2024-03-22T00:31:01;9.32;;;5.82;;
73670;SDS011;61968;48.178;11.566;2024-03-22T00:33:26;9.90;;;7.05;;
73670;SDS011;61968;48.178;11.566;2024-03-22T00:35:54;10.88;;;6.45;;
73670;SDS011;61968;48.178;11.566;2024-03-22T00:38:19;9.48;;;6.45;;
73670;SDS011;61968;48.178;11.566;2024-03-22T00:40:46;9.63;;;6.10;;
73670;SDS011;61968;48.178;11.566;2024-03-22T00:43:11;11.43;;;6.57;;
73670;SDS011;61968;48.178;11.566;2024-03-22T00:45:38;12.20;;;6.68;;
73670;SDS011;61968;48.178;11.566;2024-03-22T00:48:04;8.75;;;6.05;;
73670;SDS011;61968;48.178;11.566;2024-03-22T00:50:31;8.70;;;7.20;;
73670;SDS011;61968;48.178;11.566;2024-03-22T00:52:58;10.07;;;6.03;;
73670;SDS011;61968;48.178;11.566;2024-03-22T00:55:24;11.73;;;6.13;;
73670;SDS011;61968;48.178;11.566;2024-03-22T00:57:50;10.60;;;6.13;;
73670;SDS011;61968;48.178;11.566;2024-03-22T01:00:17;9.48;;;6.65;;
73670;SDS011;61968;48.178;11.566;2024-03-22T01:02:43;11.35;;;6.88;;
73670;SDS011;61968;48.178;11.566;2024-03-22T01:05:10;9.15;;;5.82;;
73670;SDS011;61968;48.178;11.566;2024-03-22T01:07:36;11.98;;;5.68;;
73670;SDS011;61968;48.178;11.566;2024-03-22T01:10:05;10.23;;;5.93;;
73670;SDS011;61968;48.178;11.566;2024-03-22T01:12:31;9.77;;;6.43;;
73670;SDS011;61968;48.178;11.566;2024-03-22T01:14:57;13.52;;;6.13;;
73670;SDS011;61968;48.178;11.566;2024-03-22T01:17:23;11.93;;;6.60;;
73670;SDS011;61968;48.178;11.566;2024-03-22T01:19:50;8.13;;;5.75;;
73670;SDS011;61968;48.178;11.566;2024-03-22T01:22:16;10.32;;;6.05;;
73670;SDS011;61968;48.178;11.566;2024-03-22T01:24:44;10.65;;;6.40;;
73670;SDS011;61968;48.178;11.566;2024-03-22T01:27:11;10.57;;;6.47;;
73670;SDS011;61968;48.178;11.566;2024-03-22T01:29:38;10.45;;;5.88;;
73670;SDS011;61968;48.178;11.566;2024-03-22T01:32:03;10.82;;;5.85;;
73670;SDS011;61968;48.178;11.566;2024-03-22T01:34:30;11.48;;;5.47;;
73670;SDS011;61968;48.178;11.566;2024-03-22T01:36:56;9.80;;;6.20;;
73670;SDS011;61968;48.178;11.566;2024-03-22T01:39:22;9.85;;;5.80;;
73670;SDS011;61968;48.178;11.566;2024-03-22T01:41:48;11.55;;;5.60;;
73670;SDS011;61968;48.178;11.566;2024-03-22T01:44:16;10.80;;;6.18;;
73670;SDS011;61968;48.178;11.566;2024-03-22T01:46:42;9.52;;;6.03;;
73670;SDS011;61968;48.178;11.566;2024-03-22T01:49:10;8.43;;;5.78;;
73670;SDS011;61968;48.178;11.566;2024-03-22T01:51:38;11.60;;;5.80;;
73670;SDS011;61968;48.178;11.566;2024-03-22T01:54:05;9.80;;;6.22;;
73670;SDS011;61968;48.178;11.566;2024-03-22T01:56:35;7.65;;;5.65;;
73670;SDS011;61968;48.178;11.566;2024-03-22T01:59:02;11.27;;;6.53;;
73670;SDS011;61968;48.178;11.566;2024-03-22T02:01:30;8.00;;;5.38;;
73670;SDS011;61968;48.178;11.566;2024-03-22T02:03:56;10.00;;;6.30;;
73670;SDS011;61968;48.178;11.566;2024-03-22T02:06:22;11.48;;;6.30;;
73670;SDS011;61968;48.178;11.566;2024-03-22T02:08:48;13.07;;;6.10;;
73670;SDS011;61968;48.178;11.566;2024-03-22T02:11:14;8.23;;;5.22;;
73670;SDS011;61968;48.178;11.566;2024-03-22T02:13:40;10.07;;;5.85;;
73670;SDS011;61968;48.178;11.566;2024-03-22T02:16:08;10.70;;;6.80;;
73670;SDS011;61968;48.178;11.566;2024-03-22T02:18:35;10.15;;;6.03;;
73670;SDS011;61968;48.178;11.566;2024-03-22T02:21:01;14.27;;;6.50;;
73670;SDS011;61968;48.178;11.566;2024-03-22T02:23:31;9.48;;;5.65;;
73670;SDS011;61968;48.178;11.566;2024-03-22T02:25:58;9.43;;;5.55;;
73670;SDS011;61968;48.178;11.566;2024-03-22T02:28:24;9.55;;;5.63;;
73670;SDS011;61968;48.178;11.566;2024-03-22T02:30:50;8.88;;;6.13;;
73670;SDS011;61968;48.178;11.566;2024-03-22T02:33:16;10.23;;;5.60;;
73670;SDS011;61968;48.178;11.566;2024-03-22T02:38:08;10.98;;;6.13;;
73670;SDS011;61968;48.178;11.566;2024-03-22T02:43:03;10.20;;;5.90;;
73670;SDS011;61968;48.178;11.566;2024-03-22T02:45:30;10.55;;;5.63;;
73670;SDS011;61968;48.178;11.566;2024-03-22T02:47:56;12.60;;;6.22;;
73670;SDS011;61968;48.178;11.566;2024-03-22T02:50:23;10.93;;;6.30;;
73670;SDS011;61968;48.178;11.566;2024-03-22T02:52:48;11.85;;;6.22;;
73670;SDS011;61968;48.178;11.566;2024-03-22T02:55:15;9.73;;;6.28;;
73670;SDS011;61968;48.178;11.566;2024-03-22T02:57:42;8.40;;;5.20;;
73670;SDS011;61968;48.178;11.566;2024-03-22T03:00:09;10.13;;;5.07;;
73670;SDS011;61968;48.178;11.566;2024-03-22T03:02:35;9.75;;;6.30;;
73670;SDS011;61968;48.178;11.566;2024-03-22T03:05:02;12.32;;;6.38;;
73670;SDS011;61968;48.178;11.566;2024-03-22T03:07:28;9.10;;;6.20;;
73670;SDS011;61968;48.178;11.566;2024-03-22T03:09:55;10.93;;;7.10;;
73670;SDS011;61968;48.178;11.566;2024-03-22T03:12:20;11.18;;;6.05;;
73670;SDS011;61968;48.178;11.566;2024-03-22T03:14:48;9.30;;;5.93;;
73670;SDS011;61968;48.178;11.566;2024-03-22T03:17:14;10.40;;;5.93;;
73670;SDS011;61968;48.178;11.566;2024-03-22T03:19:40;9.05;;;5.75;;
73670;SDS011;61968;48.178;11.566;2024-03-22T03:22:05;12.80;;;6.80;;
73670;SDS011;61968;48.178;11.566;2024-03-22T03:24:32;13.25;;;7.88;;
73670;SDS011;61968;48.178;11.566;2024-03-22T03:26:57;13.48;;;7.75;;
73670;SDS011;61968;48.178;11.566;2024-03-22T03:29:24;13.85;;;6.97;;
73670;SDS011;61968;48.178;11.566;2024-03-22T03:31:51;10.20;;;6.18;;
73670;SDS011;61968;48.178;11.566;2024-03-22T03:34:17;14.23;;;6.90;;
73670;SDS011;61968;48.178;11.566;2024-03-22T03:36:44;13.25;;;6.75;;
73670;SDS011;61968;48.178;11.566;2024-03-22T03:39:11;10.27;;;6.88;;
73670;SDS011;61968;48.178;11.566;2024-03-22T03:41:36;17.63;;;7.55;;
73670;SDS011;61968;48.178;11.566;2024-03-22T03:46:28;11.25;;;6.50;;
73670;SDS011;61968;48.178;11.566;2024-03-22T03:51:21;12.10;;;6.35;;
73670;SDS011;61968;48.178;11.566;2024-03-22T03:53:49;12.85;;;7.32;;
73670;SDS011;61968;48.178;11.566;2024-03-22T03:56:14;10.98;;;6.68;;
73670;SDS011;61968;48.178;11.566;2024-03-22T03:58:41;8.68;;;6.55;;
73670;SDS011;61968;48.178;11.566;2024-03-22T04:01:06;16.83;;;6.78;;
73670;SDS011;61968;48.178;11.566;2024-03-22T04:03:33;10.20;;;5.60;;
73670;SDS011;61968;48.178;11.566;2024-03-22T04:06:00;10.38;;;6.20;;
73670;SDS011;61968;48.178;11.566;2024-03-22T04:08:27;13.30;;;6.30;;
73670;SDS011;61968;48.178;11.566;2024-03-22T04:10:53;15.75;;;6.63;;
73670;SDS011;61968;48.178;11.566;2024-03-22T04:13:22;14.98;;;6.78;;
73670;SDS011;61968;48.178;11.566;2024-03-22T04:15:47;14.35;;;6.68;;
73670;SDS011;61968;48.178;11.566;2024-03-22T04:18:14;12.88;;;7.22;;
73670;SDS011;61968;48.178;11.566;2024-03-22T04:20:39;12.68;;;6.93;;
73670;SDS011;61968;48.178;11.566;2024-03-22T04:25:33;10.80;;;5.72;;
73670;SDS011;61968;48.178;11.566;2024-03-22T04:27:59;9.90;;;6.18;;
73670;SDS011;61968;48.178;11.566;2024-03-22T04:30:24;10.25;;;6.30;;
73670;SDS011;61968;48.178;11.566;2024-03-22T04:32:51;12.82;;;7.22;;
73670;SDS011;61968;48.178;11.566;2024-03-22T04:35:16;11.50;;;7.15;;
73670;SDS011;61968;48.178;11.566;2024-03-22T04:37:43;12.95;;;5.88;;
73670;SDS011;61968;48.178;11.566;2024-03-22T04:40:11;15.38;;;7.68;;
73670;SDS011;61968;48.178;11.566;2024-03-22T04:42:38;12.68;;;7.32;;
73670;SDS011;61968;48.178;11.566;2024-03-22T04:45:05;12.70;;;7.47;;
73670;SDS011;61968;48.178;11.566;2024-03-22T04:47:32;12.77;;;6.32;;
73670;SDS011;61968;48.178;11.566;2024-03-22T04:49:57;12.85;;;6.75;;
73670;SDS011;61968;48.178;11.566;2024-03-22T04:54:49;14.18;;;6.72;;
73670;SDS011;61968;48.178;11.566;2024-03-22T04:57:17;13.95;;;8.02;;
73670;SDS011;61968;48.178;11.566;2024-03-22T04:59:42;10.75;;;6.97;;
73670;SDS011;61968;48.178;11.566;2024-03-22T05:02:09;15.68;;;7.00;;
73670;SDS011;61968;48.178;11.566;2024-03-22T05:04:35;12.27;;;6.93;;
73670;SDS011;61968;48.178;11.566;2024-03-22T05:07:01;14.27;;;7.82;;
73670;SDS011;61968;48.178;11.566;2024-03-22T05:09:28;17.15;;;7.88;;
73670;SDS011;61968;48.178;11.566;2024-03-22T05:11:57;10.98;;;7.13;;
73670;SDS011;61968;48.178;11.566;2024-03-22T05:14:24;12.95;;;7.57;;
73670;SDS011;61968;48.178;11.566;2024-03-22T05:16:50;11.50;;;6.60;;
73670;SDS011;61968;48.178;11.566;2024-03-22T05:19:17;15.27;;;8.40;;
73670;SDS011;61968;48.178;11.566;2024-03-22T05:21:42;11.88;;;7.07;;
73670;SDS011;61968;48.178;11.566;2024-03-22T05:24:09;10.95;;;5.80;;
73670;SDS011;61968;48.178;11.566;2024-03-22T05:26:34;22.73;;;8.00;;
73670;SDS011;61968;48.178;11.566;2024-03-22T05:29:01;14.38;;;6.32;;
73670;SDS011;61968;48.178;11.566;2024-03-22T05:31:29;12.07;;;7.30;;
73670;SDS011;61968;48.178;11.566;2024-03-22T05:33:55;9.23;;;5.90;;
73670;SDS011;61968;48.178;11.566;2024-03-22T05:36:21;13.95;;;5.75;;
73670;SDS011;61968;48.178;11.566;2024-03-22T05:38:47;14.10;;;6.57;;
73670;SDS011;61968;48.178;11.566;2024-03-22T05:41:13;14.98;;;6.75;;
73670;SDS011;61968;48.178;11.566;2024-03-22T05:46:04;11.73;;;6.70;;
73670;SDS011;61968;48.178;11.566;2024-03-22T05:50:57;9.48;;;6.07;;
73670;SDS011;61968;48.178;11.566;2024-03-22T05:55:49;9.88;;;5.03;;
73670;SDS011;61968;48.178;11.566;2024-03-22T05:58:16;11.52;;;6.00;;
73670;SDS011;61968;48.178;11.566;2024-03-22T06:00:41;9.82;;;6.18;;
73670;SDS011;61968;48.178;11.566;2024-03-22T06:05:34;7.13;;;5.15;;
73670;SDS011;61968;48.178;11.566;2024-03-22T06:08:01;12.23;;;6.75;;
73670;SDS011;61968;48.178;11.566;2024-03-22T06:10:28;10.85;;;6.32;;
73670;SDS011;61968;48.178;11.566;2024-03-22T06:12:54;15.13;;;7.10;;
73670;SDS011;61968;48.178;11.566;2024-03-22T06:15:20;9.13;;;5.25;;
73670;SDS011;61968;48.178;11.566;2024-03-22T06:20:12;11.68;;;5.53;;
73670;SDS011;61968;48.178;11.566;2024-03-22T06:22:40;12.45;;;4.93;;
73670;SDS011;61968;48.178;11.566;2024-03-22T06:25:06;9.65;;;5.63;;
73670;SDS011;61968;48.178;11.566;2024-03-22T06:27:33;13.02;;;6.65;;
73670;SDS011;61968;48.178;11.566;2024-03-22T06:29:58;12.00;;;3.83;;
73670;SDS011;61968;48.178;11.566;2024-03-22T06:34:50;12.10;;;5.32;;
73670;SDS011;61968;48.178;11.566;2024-03-22T06:37:16;20.40;;;6.22;;
73670;SDS011;61968;48.178;11.566;2024-03-22T06:39:43;12.60;;;6.00;;
73670;SDS011;61968;48.178;11.566;2024-03-22T06:42:10;10.07;;;5.53;;
73670;SDS011;61968;48.178;11.566;2024-03-22T06:44:35;17.95;;;6.82;;
73670;SDS011;61968;48.178;11.566;2024-03-22T06:47:02;7.65;;;4.55;;
73670;SDS011;61968;48.178;11.566;2024-03-22T06:49:28;7.75;;;5.32;;
73670;SDS011;61968;48.178;11.566;2024-03-22T06:51:54;11.43;;;5.70;;
73670;SDS011;61968;48.178;11.566;2024-03-22T06:54:19;8.10;;;4.53;;
73670;SDS011;61968;48.178;11.566;2024-03-22T06:56:48;8.93;;;6.13;;
73670;SDS011;61968;48.178;11.566;2024-03-22T06:59:13;8.68;;;5.13;;
73670;SDS011;61968;48.178;11.566;2024-03-22T07:01:40;9.77;;;5.15;;
73670;SDS011;61968;48.178;11.566;2024-03-22T07:04:05;7.68;;;5.20;;
73670;SDS011;61968;48.178;11.566;2024-03-22T07:06:32;10.13;;;4.97;;
73670;SDS011;61968;48.178;11.566;2024-03-22T07:08:57;11.02;;;5.00;;
73670;SDS011;61968;48.178;11.566;2024-03-22T07:13:50;14.95;;;5.45;;
73670;SDS011;61968;48.178;11.566;2024-03-22T07:16:18;8.52;;;5.32;;
73670;SDS011;61968;48.178;11.566;2024-03-22T07:18:45;7.72;;;4.85;;
73670;SDS011;61968;48.178;11.566;2024-03-22T07:21:10;9.07;;;5.47;;
73670;SDS011;61968;48.178;11.566;2024-03-22T07:23:37;7.88;;;4.93;;
73670;SDS011;61968;48.178;11.566;2024-03-22T07:26:02;7.53;;;4.97;;
73670;SDS011;61968;48.178;11.566;2024-03-22T07:28:30;7.82;;;5.25;;
73670;SDS011;61968;48.178;11.566;2024-03-22T07:30:57;12.10;;;6.10;;
73670;SDS011;61968;48.178;11.566;2024-03-22T07:33:24;9.95;;;5.25;;
73670;SDS011;61968;48.178;11.566;2024-03-22T07:35:49;6.53;;;4.82;;
73670;SDS011;61968;48.178;11.566;2024-03-22T07:38:16;8.77;;;5.07;;
73670;SDS011;61968;48.178;11.566;2024-03-22T07:40:42;6.72;;;5.07;;
73670;SDS011;61968;48.178;11.566;2024-03-22T07:45:34;14.32;;;5.65;;
73670;SDS011;61968;48.178;11.566;2024-03-22T07:48:02;6.53;;;4.20;;
73670;SDS011;61968;48.178;11.566;2024-03-22T07:50:28;8.60;;;5.35;;
73670;SDS011;61968;48.178;11.566;2024-03-22T07:52:55;8.77;;;4.65;;
73670;SDS011;61968;48.178;11.566;2024-03-22T07:55:20;9.05;;;4.95;;
73670;SDS011;61968;48.178;11.566;2024-03-22T08:00:12;7.80;;;4.80;;
73670;SDS011;61968;48.178;11.566;2024-03-22T08:02:39;7.32;;;4.60;;
73670;SDS011;61968;48.178;11.566;2024-03-22T08:05:06;5.50;;;4.60;;
73670;SDS011;61968;48.178;11.566;2024-03-22T08:07:33;11.10;;;5.97;;
73670;SDS011;61968;48.178;11.566;2024-03-22T08:09:58;9.55;;;5.13;;
73670;SDS011;61968;48.178;11.566;2024-03-22T08:12:27;9.07;;;4.28;;
73670;SDS011;61968;48.178;11.566;2024-03-22T08:14:52;7.70;;;4.78;;
73670;SDS011;61968;48.178;11.566;2024-03-22T08:17:19;8.35;;;4.72;;
73670;SDS011;61968;48.178;11.566;2024-03-22T08:19:44;8.43;;;5.35;;
73670;SDS011;61968;48.178;11.566;2024-03-22T08:22:12;10.07;;;5.47;;
73670;SDS011;61968;48.178;11.566;2024-03-22T08:24:39;7.55;;;4.40;;
73670;SDS011;61968;48.178;11.566;2024-03-22T08:27:05;9.68;;;5.70;;
73670;SDS011;61968;48.178;11.566;2024-03-22T08:29:31;14.35;;;5.93;;
73670;SDS011;61968;48.178;11.566;2024-03-22T08:31:57;8.88;;;5.07;;
73670;SDS011;61968;48.178;11.566;2024-03-22T08:34:23;5.70;;;4.50;;
73670;SDS011;61968;48.178;11.566;2024-03-22T08:36:49;10.27;;;4.85;;
73670;SDS011;61968;48.178;11.566;2024-03-22T08:39:16;8.00;;;4.72;;
73670;SDS011;61968;48.178;11.566;2024-03-22T08:41:43;7.65;;;4.88;;
73670;SDS011;61968;48.178;11.566;2024-03-22T08:44:09;9.13;;;4.80;;
73670;SDS011;61968;48.178;11.566;2024-03-22T08:46:36;8.07;;;4.78;;
73670;SDS011;61968;48.178;11.566;2024-03-22T08:49:01;9.57;;;4.88;;
73670;SDS011;61968;48.178;11.566;2024-03-22T08:51:28;5.95;;;4.10;;
73670;SDS011;61968;48.178;11.566;2024-03-22T08:53:54;9.30;;;4.32;;
73670;SDS011;61968;48.178;11.566;2024-03-22T08:56:22;9.45;;;4.70;;
73670;SDS011;61968;48.178;11.566;2024-03-22T08:58:47;6.72;;;5.05;;
73670;SDS011;61968;48.178;11.566;2024-03-22T09:01:14;9.05;;;4.50;;
73670;SDS011;61968;48.178;11.566;2024-03-22T09:03:40;12.02;;;4.60;;
73670;SDS011;61968;48.178;11.566;2024-03-22T09:06:10;10.90;;;4.68;;
73670;SDS011;61968;48.178;11.566;2024-03-22T09:08:35;6.25;;;4.10;;
73670;SDS011;61968;48.178;11.566;2024-03-22T09:11:02;5.82;;;3.70;;
73670;SDS011;61968;48.178;11.566;2024-03-22T09:13:29;8.68;;;4.88;;
73670;SDS011;61968;48.178;11.566;2024-03-22T09:15:56;9.30;;;5.15;;
73670;SDS011;61968;48.178;11.566;2024-03-22T09:18:22;9.02;;;5.00;;
73670;SDS011;61968;48.178;11.566;2024-03-22T09:20:48;8.77;;;4.88;;
73670;SDS011;61968;48.178;11.566;2024-03-22T09:23:13;9.40;;;4.88;;
73670;SDS011;61968;48.178;11.566;2024-03-22T09:25:40;8.27;;;4.40;;
73670;SDS011;61968;48.178;11.566;2024-03-22T09:28:05;7.68;;;4.60;;
73670;SDS011;61968;48.178;11.566;2024-03-22T09:30:33;7.50;;;4.72;;
73670;SDS011;61968;48.178;11.566;2024-03-22T09:33:03;4.40;;;4.00;;
73670;SDS011;61968;48.178;11.566;2024-03-22T09:35:30;6.65;;;4.47;;
73670;SDS011;61968;48.178;11.566;2024-03-22T09:40:22;5.70;;;3.53;;
73670;SDS011;61968;48.178;11.566;2024-03-22T09:42:49;8.18;;;4.60;;
73670;SDS011;61968;48.178;11.566;2024-03-22T09:45:17;6.82;;;3.97;;
73670;SDS011;61968;48.178;11.566;2024-03-22T09:47:47;6.97;;;4.40;;
73670;SDS011;61968;48.178;11.566;2024-03-22T09:50:14;6.68;;;4.07;;
73670;SDS011;61968;48.178;11.566;2024-03-22T09:52:40;5.15;;;4.22;;
73670;SDS011;61968;48.178;11.566;2024-03-22T09:55:08;8.18;;;4.07;;
73670;SDS011;61968;48.178;11.566;2024-03-22T09:57:34;4.45;;;3.05;;
73670;SDS011;61968;48.178;11.566;2024-03-22T10:00:05;10.32;;;3.50;;
73670;SDS011;61968;48.178;11.566;2024-03-22T10:02:32;5.80;;;3.22;;
73670;SDS011;61968;48.178;11.566;2024-03-22T10:05:01;6.95;;;3.55;;
73670;SDS011;61968;48.178;11.566;2024-03-22T10:07:27;6.97;;;4.22;;
73670;SDS011;61968;48.178;11.566;2024-03-22T10:09:57;9.75;;;4.03;;
73670;SDS011;61968;48.178;11.566;2024-03-22T10:12:22;7.22;;;4.63;;
73670;SDS011;61968;48.178;11.566;2024-03-22T10:14:50;13.48;;;3.78;;
73670;SDS011;61968;48.178;11.566;2024-03-22T10:17:17;6.40;;;3.78;;
73670;SDS011;61968;48.178;11.566;2024-03-22T10:19:44;7.43;;;3.60;;
73670;SDS011;61968;48.178;11.566;2024-03-22T10:22:11;9.35;;;4.10;;
73670;SDS011;61968;48.178;11.566;2024-03-22T10:24:37;4.70;;;3.92;;
73670;SDS011;61968;48.178;11.566;2024-03-22T10:27:03;4.13;;;3.73;;
73670;SDS011;61968;48.178;11.566;2024-03-22T10:29:30;4.78;;;3.90;;
73670;SDS011;61968;48.178;11.566;2024-03-22T10:31:55;6.47;;;4.03;;
73670;SDS011;61968;48.178;11.566;2024-03-22T10:34:22;6.30;;;3.58;;
73670;SDS011;61968;48.178;11.566;2024-03-22T10:36:49;6.35;;;4.00;;
73670;SDS011;61968;48.178;11.566;2024-03-22T10:39:17;6.22;;;3.45;;
73670;SDS011;61968;48.178;11.566;2024-03-22T10:41:43;8.57;;;3.42;;
73670;SDS011;61968;48.178;11.566;2024-03-22T10:44:10;6.45;;;3.38;;
73670;SDS011;61968;48.178;11.566;2024-03-22T10:46:36;9.93;;;3.88;;
73670;SDS011;61968;48.178;11.566;2024-03-22T10:49:04;6.40;;;3.60;;
73670;SDS011;61968;48.178;11.566;2024-03-22T10:51:31;8.85;;;3.58;;
73670;SDS011;61968;48.178;11.566;2024-03-22T10:54:00;6.18;;;3.20;;
73670;SDS011;61968;48.178;11.566;2024-03-22T10:56:29;4.43;;;4.00;;
73670;SDS011;61968;48.178;11.566;2024-03-22T10:58:56;4.82;;;3.08;;
73670;SDS011;61968;48.178;11.566;2024-03-22T11:01:22;5.82;;;3.35;;
73670;SDS011;61968;48.178;11.566;2024-03-22T11:03:49;7.47;;;3.55;;
73670;SDS011;61968;48.178;11.566;2024-03-22T11:06:17;11.13;;;3.35;;
73670;SDS011;61968;48.178;11.566;2024-03-22T11:08:49;6.90;;;3.05;;
73670;SDS011;61968;48.178;11.566;2024-03-22T11:11:15;6.72;;;3.53;;
73670;SDS011;61968;48.178;11.566;2024-03-22T11:13:46;3.47;;;3.17;;
73670;SDS011;61968;48.178;11.566;2024-03-22T11:16:12;6.80;;;3.85;;
73670;SDS011;61968;48.178;11.566;2024-03-22T11:18:40;4.07;;;3.33;;
73670;SDS011;61968;48.178;11.566;2024-03-22T11:21:05;7.68;;;3.10;;
73670;SDS011;61968;48.178;11.566;2024-03-22T11:23:33;5.20;;;3.28;;
73670;SDS011;61968;48.178;11.566;2024-03-22T11:25:59;14.93;;;4.97;;
73670;SDS011;61968;48.178;11.566;2024-03-22T11:28:26;6.75;;;3.55;;
73670;SDS011;61968;48.178;11.566;2024-03-22T11:30:53;2.88;;;2.38;;
73670;SDS011;61968;48.178;11.566;2024-03-22T11:33:19;4.38;;;3.13;;
73670;SDS011;61968;48.178;11.566;2024-03-22T11:35:44;13.38;;;3.15;;
73670;SDS011;61968;48.178;11.566;2024-03-22T11:38:11;4.13;;;2.92;;
73670;SDS011;61968;48.178;11.566;2024-03-22T11:40:37;9.88;;;2.72;;
73670;SDS011;61968;48.178;11.566;2024-03-22T11:43:03;3.28;;;2.08;;
73670;SDS011;61968;48.178;11.566;2024-03-22T11:45:30;3.83;;;2.42;;
73670;SDS011;61968;48.178;11.566;2024-03-22T11:48:01;7.22;;;2.65;;
73670;SDS011;61968;48.178;11.566;2024-03-22T11:50:27;13.57;;;2.78;;
73670;SDS011;61968;48.178;11.566;2024-03-22T11:52:54;4.53;;;2.90;;
73670;SDS011;61968;48.178;11.566;2024-03-22T11:55:19;6.00;;;3.47;;
73670;SDS011;61968;48.178;11.566;2024-03-22T11:57:47;8.45;;;4.32;;
73670;SDS011;61968;48.178;11.566;2024-03-22T12:00:14;7.30;;;4.05;;
73670;SDS011;61968;48.178;11.566;2024-03-22T12:02:41;3.63;;;3.30;;
73670;SDS011;61968;48.178;11.566;2024-03-22T12:05:08;5.25;;;3.10;;
73670;SDS011;61968;48.178;11.566;2024-03-22T12:07:36;6.90;;;3.58;;
73670;SDS011;61968;48.178;11.566;2024-03-22T12:10:01;8.93;;;3.58;;
73670;SDS011;61968;48.178;11.566;2024-03-22T12:12:28;5.72;;;3.95;;
73670;SDS011;61968;48.178;11.566;2024-03-22T12:14:55;6.82;;;4.00;;
73670;SDS011;61968;48.178;11.566;2024-03-22T12:17:21;22.05;;;8.85;;
73670;SDS011;61968;48.178;11.566;2024-03-22T12:19:47;14.48;;;5.70;;
73670;SDS011;61968;48.178;11.566;2024-03-22T12:22:15;5.40;;;3.60;;
73670;SDS011;61968;48.178;11.566;2024-03-22T12:24:40;10.93;;;4.38;;
73670;SDS011;61968;48.178;11.566;2024-03-22T12:27:07;7.03;;;3.28;;
73670;SDS011;61968;48.178;11.566;2024-03-22T12:29:32;6.38;;;3.35;;
73670;SDS011;61968;48.178;11.566;2024-03-22T12:31:59;4.80;;;2.47;;
73670;SDS011;61968;48.178;11.566;2024-03-22T12:34:26;6.00;;;3.63;;
73670;SDS011;61968;48.178;11.566;2024-03-22T12:36:54;4.55;;;3.30;;
73670;SDS011;61968;48.178;11.566;2024-03-22T12:39:21;4.60;;;3.15;;
73670;SDS011;61968;48.178;11.566;2024-03-22T12:41:48;6.38;;;3.13;;
73670;SDS011;61968;48.178;11.566;2024-03-22T12:44:13;8.00;;;3.72;;
73670;SDS011;61968;48.178;11.566;2024-03-22T12:46:40;6.07;;;3.28;;
73670;SDS011;61968;48.178;11.566;2024-03-22T12:49:07;3.67;;;2.47;;
73670;SDS011;61968;48.178;11.566;2024-03-22T12:51:34;4.57;;;2.95;;
73670;SDS011;61968;48.178;11.566;2024-03-22T12:54:00;6.53;;;3.58;;
73670;SDS011;61968;48.178;11.566;2024-03-22T12:56:28;3.20;;;2.78;;
73670;SDS011;61968;48.178;11.566;2024-03-22T12:58:54;5.10;;;2.72;;
73670;SDS011;61968;48.178;11.566;2024-03-22T13:01:20;3.97;;;3.13;;
73670;SDS011;61968;48.178;11.566;2024-03-22T13:03:46;3.92;;;2.30;;
73670;SDS011;61968;48.178;11.566;2024-03-22T13:06:12;3.40;;;3.10;;
73670;SDS011;61968;48.178;11.566;2024-03-22T13:08:38;7.13;;;4.03;;
73670;SDS011;61968;48.178;11.566;2024-03-22T13:11:04;5.75;;;3.42;;
73670;SDS011;61968;48.178;11.566;2024-03-22T13:13:34;4.85;;;2.63;;
73670;SDS011;61968;48.178;11.566;2024-03-22T13:16:01;6.03;;;2.05;;
73670;SDS011;61968;48.178;11.566;2024-03-22T13:18:27;6.35;;;2.35;;
73670;SDS011;61968;48.178;11.566;2024-03-22T13:20:54;3.63;;;3.08;;
73670;SDS011;61968;48.178;11.566;2024-03-22T13:23:19;3.75;;;1.83;;
73670;SDS011;61968;48.178;11.566;2024-03-22T13:25:46;3.33;;;2.05;;
73670;SDS011;61968;48.178;11.566;2024-03-22T13:28:11;3.78;;;1.98;;
73670;SDS011;61968;48.178;11.566;2024-03-22T13:30:39;5.03;;;2.40;;
73670;SDS011;61968;48.178;11.566;2024-03-22T13:33:05;7.30;;;2.67;;
73670;SDS011;61968;48.178;11.566;2024-03-22T13:35:33;2.80;;;1.98;;
73670;SDS011;61968;48.178;11.566;2024-03-22T13:40:25;3.05;;;1.75;;
73670;SDS011;61968;48.178;11.566;2024-03-22T13:45:18;10.82;;;2.60;;
73670;SDS011;61968;48.178;11.566;2024-03-22T13:50:11;4.15;;;1.60;;
73670;SDS011;61968;48.178;11.566;2024-03-22T13:52:37;2.80;;;2.10;;
73670;SDS011;61968;48.178;11.566;2024-03-22T13:55:04;3.13;;;2.10;;
73670;SDS011;61968;48.178;11.566;2024-03-22T13:57:31;2.28;;;1.80;;
73670;SDS011;61968;48.178;11.566;2024-03-22T13:59:58;1.95;;;1.75;;
73670;SDS011;61968;48.178;11.566;2024-03-22T14:02:24;4.40;;;2.20;;
73670;SDS011;61968;48.178;11.566;2024-03-22T14:04:51;2.35;;;1.67;;
73670;SDS011;61968;48.178;11.566;2024-03-22T14:07:17;6.75;;;1.80;;
73670;SDS011;61968;48.178;11.566;2024-03-22T14:09:43;2.88;;;2.25;;
73670;SDS011;61968;48.178;11.566;2024-03-22T14:12:10;4.65;;;2.00;;
73670;SDS011;61968;48.178;11.566;2024-03-22T14:14:37;1.60;;;1.50;;
73670;SDS011;61968;48.178;11.566;2024-03-22T14:19:28;3.17;;;1.90;;
73670;SDS011;61968;48.178;11.566;2024-03-22T14:24:22;1.88;;;1.50;;
73670;SDS011;61968;48.178;11.566;2024-03-22T14:29:15;4.00;;;1.65;;
73670;SDS011;61968;48.178;11.566;2024-03-22T14:31:40;3.15;;;1.45;;
73670;SDS011;61968;48.178;11.566;2024-03-22T14:34:09;3.28;;;1.40;;
73670;SDS011;61968;48.178;11.566;2024-03-22T14:36:34;4.85;;;1.80;;
73670;SDS011;61968;48.178;11.566;2024-03-22T14:39:02;4.95;;;2.35;;
73670;SDS011;61968;48.178;11.566;2024-03-22T14:41:30;3.55;;;2.30;;
73670;SDS011;61968;48.178;11.566;2024-03-22T14:43:56;2.88;;;1.85;;
73670;SDS011;61968;48.178;11.566;2024-03-22T14:48:50;2.28;;;2.00;;
73670;SDS011;61968;48.178;11.566;2024-03-22T14:51:19;3.42;;;1.80;;
73670;SDS011;61968;48.178;11.566;2024-03-22T14:53:45;3.22;;;2.15;;
73670;SDS011;61968;48.178;11.566;2024-03-22T14:58:39;3.72;;;1.80;;
73670;SDS011;61968;48.178;11.566;2024-03-22T15:01:05;3.72;;;1.60;;
73670;SDS011;61968;48.178;11.566;2024-03-22T15:03:33;4.45;;;1.27;;
73670;SDS011;61968;48.178;11.566;2024-03-22T15:05:59;1.45;;;1.23;;
73670;SDS011;61968;48.178;11.566;2024-03-22T15:08:26;1.88;;;1.27;;
73670;SDS011;61968;48.178;11.566;2024-03-22T15:10:53;2.47;;;1.55;;
73670;SDS011;61968;48.178;11.566;2024-03-22T15:13:21;3.80;;;1.30;;
73670;SDS011;61968;48.178;11.566;2024-03-22T15:15:51;4.50;;;1.92;;
73670;SDS011;61968;48.178;11.566;2024-03-22T15:18:18;1.35;;;1.25;;
73670;SDS011;61968;48.178;11.566;2024-03-22T15:23:10;1.67;;;1.25;;
73670;SDS011;61968;48.178;11.566;2024-03-22T15:28:02;8.52;;;1.95;;